createdAt,value
2022-12-16T00:02:47.898Z,24.90
2022-12-16T00:05:42.679Z,27.63
2022-12-16T00:08:34.812Z,24.03
2022-12-16T00:11:23.280Z,25.70
2022-12-16T00:14:08.623Z,21.63
2022-12-16T00:16:53.856Z,22.60
2022-12-16T00:19:40.492Z,28.70
2022-12-16T00:22:25.971Z,23.80
2022-12-16T00:25:11.712Z,25.27
2022-12-16T00:28:00.443Z,26.47
2022-12-16T00:30:50.696Z,29.00
2022-12-16T00:33:39.928Z,22.60
2022-12-16T00:36:27.467Z,28.97
2022-12-16T00:39:12.898Z,33.73
2022-12-16T00:41:59.046Z,30.40
2022-12-16T00:44:45.014Z,31.97
2022-12-16T00:47:30.908Z,28.73
2022-12-16T00:50:20.459Z,25.00
2022-12-16T00:53:06.234Z,28.80
2022-12-16T00:56:02.820Z,24.13
2022-12-16T00:58:52.980Z,22.40
2022-12-16T01:01:40.525Z,25.60
2022-12-16T01:04:26.830Z,27.20
2022-12-16T01:07:12.308Z,24.33
2022-12-16T01:09:57.906Z,26.23
2022-12-16T01:12:43.643Z,19.67
2022-12-16T01:15:31.672Z,22.20
2022-12-16T01:18:20.245Z,28.40
2022-12-16T01:21:08.489Z,31.13
2022-12-16T01:23:56.332Z,26.63
2022-12-16T01:26:41.800Z,25.60
2022-12-16T01:29:27.660Z,29.70
2022-12-16T01:32:13.972Z,27.27
2022-12-16T01:35:00.583Z,18.97
2022-12-16T01:37:46.216Z,26.53
2022-12-16T01:40:34.261Z,24.80
2022-12-16T01:43:24.275Z,25.53
2022-12-16T01:46:18.675Z,22.90
2022-12-16T01:49:13.350Z,28.07
2022-12-16T01:52:03.384Z,27.27
2022-12-16T01:55:08.055Z,24.00
2022-12-16T01:58:10.929Z,26.50
2022-12-16T02:00:56.466Z,22.90
2022-12-16T02:03:42.825Z,20.13
2022-12-16T02:06:32.197Z,27.90
2022-12-16T02:09:18.358Z,22.80
2022-12-16T02:12:15.639Z,21.90
2022-12-16T02:15:13.281Z,30.37
2022-12-16T02:18:07.164Z,22.63
2022-12-16T02:21:10.743Z,25.33
2022-12-16T02:24:07.124Z,29.47
2022-12-16T02:27:12.292Z,28.27
2022-12-16T02:30:34.631Z,29.03
2022-12-16T02:33:47.963Z,29.50
2022-12-16T02:36:59.440Z,30.00
2022-12-16T02:40:06.119Z,23.97
2022-12-16T02:43:00.450Z,29.07
2022-12-16T02:45:50.223Z,32.73
2022-12-16T02:48:36.102Z,23.93
2022-12-16T02:51:24.694Z,27.27
2022-12-16T02:54:14.267Z,26.00
2022-12-16T02:57:31.958Z,22.10
2022-12-16T03:00:26.607Z,24.63
2022-12-16T03:03:25.442Z,26.50
2022-12-16T03:06:14.339Z,24.83
2022-12-16T03:09:03.426Z,24.73
2022-12-16T03:11:54.465Z,22.87
2022-12-16T03:14:43.722Z,30.60
2022-12-16T03:17:32.575Z,25.10
2022-12-16T03:20:33.522Z,23.77
2022-12-16T03:23:36.108Z,25.73
2022-12-16T03:26:39.354Z,25.67
2022-12-16T03:29:39.600Z,24.97
2022-12-16T03:33:02.451Z,24.70
2022-12-16T03:36:06.980Z,22.57
2022-12-16T03:38:53.863Z,19.53
2022-12-16T03:41:40.295Z,19.23
2022-12-16T03:44:25.966Z,29.30
2022-12-16T03:47:11.431Z,24.97
2022-12-16T03:49:59.056Z,20.63
2022-12-16T03:52:46.725Z,23.40
2022-12-16T03:55:35.131Z,28.27
2022-12-16T03:58:20.971Z,24.37
2022-12-16T04:01:10.500Z,25.47
2022-12-16T04:03:56.234Z,22.77
2022-12-16T04:06:44.088Z,25.57
2022-12-16T04:09:29.420Z,24.83
2022-12-16T04:12:33.295Z,23.57
2022-12-16T04:15:37.730Z,28.73
2022-12-16T04:18:41.893Z,27.30
2022-12-16T04:21:47.162Z,25.60
2022-12-16T04:24:35.874Z,21.80
2022-12-16T04:27:24.573Z,19.07
2022-12-16T04:30:21.191Z,27.33
2022-12-16T04:33:32.434Z,19.73
2022-12-16T04:36:39.219Z,29.93
2022-12-16T04:39:45.738Z,22.90
2022-12-16T04:42:50.031Z,23.20
2022-12-16T04:45:54.166Z,20.47
2022-12-16T04:48:57.938Z,23.10
2022-12-16T04:52:02.472Z,23.83
2022-12-16T04:55:09.048Z,26.83
2022-12-16T04:58:15.681Z,29.83
2022-12-16T05:01:22.404Z,23.63
2022-12-16T05:04:26.161Z,23.80
2022-12-16T05:07:37.914Z,30.63
2022-12-16T05:10:42.461Z,24.47
2022-12-16T05:13:49.029Z,22.80
2022-12-16T05:16:53.090Z,25.93
2022-12-16T05:19:57.083Z,31.53
2022-12-16T05:23:00.964Z,22.90
2022-12-16T05:26:04.720Z,28.87
2022-12-16T05:29:08.874Z,31.60
2022-12-16T05:32:12.997Z,25.53
2022-12-16T05:35:19.311Z,27.50
2022-12-16T05:38:23.280Z,25.90
2022-12-16T05:41:26.908Z,25.03
2022-12-16T05:44:30.943Z,32.27
2022-12-16T05:47:40.961Z,31.90
2022-12-16T05:50:44.995Z,24.07
2022-12-16T05:53:49.468Z,24.30
2022-12-16T05:56:53.210Z,24.97
2022-12-16T05:59:57.140Z,25.57
2022-12-16T06:03:01.225Z,24.30
2022-12-16T06:06:05.082Z,32.17
2022-12-16T06:09:22.467Z,26.83
2022-12-16T06:12:26.438Z,23.60
2022-12-16T06:15:32.494Z,25.63
2022-12-16T06:18:36.576Z,25.20
2022-12-16T06:21:40.906Z,22.80
2022-12-16T06:24:44.978Z,23.00
2022-12-16T06:27:53.902Z,24.10
2022-12-16T06:31:00.288Z,30.67
2022-12-16T06:34:06.367Z,22.73
2022-12-16T06:37:10.830Z,28.40
2022-12-16T06:40:14.418Z,22.37
2022-12-16T06:43:21.291Z,20.97
2022-12-16T06:46:25.713Z,30.47
2022-12-16T06:49:29.574Z,19.87
2022-12-16T06:52:33.662Z,24.60
2022-12-16T06:55:37.638Z,29.03
2022-12-16T06:58:41.589Z,26.40
2022-12-16T07:01:45.932Z,27.17
2022-12-16T07:05:03.542Z,22.53
2022-12-16T07:08:10.956Z,24.60
2022-12-16T07:11:17.080Z,21.90
2022-12-16T07:14:21.810Z,27.20
2022-12-16T07:17:28.000Z,24.80
2022-12-16T07:20:31.743Z,28.13
2022-12-16T07:23:35.691Z,25.67
2022-12-16T07:26:39.975Z,26.43
2022-12-16T07:29:43.915Z,25.33
2022-12-16T07:32:48.085Z,29.57
2022-12-16T07:35:51.939Z,28.50
2022-12-16T07:38:55.917Z,26.23
2022-12-16T07:41:59.517Z,28.10
2022-12-16T07:45:04.209Z,21.43
2022-12-16T07:48:09.637Z,23.37
2022-12-16T07:51:13.484Z,24.53
2022-12-16T07:54:20.787Z,24.70
2022-12-16T07:57:24.391Z,30.33
2022-12-16T08:00:31.458Z,27.37
2022-12-16T08:03:35.708Z,21.40
2022-12-16T08:07:00.724Z,24.63
2022-12-16T08:10:04.687Z,25.83
2022-12-16T08:13:23.738Z,22.43
2022-12-16T08:16:29.745Z,25.83
2022-12-16T08:19:33.575Z,27.47
2022-12-16T08:22:37.384Z,21.60
2022-12-16T08:25:41.463Z,27.83
2022-12-16T08:28:45.315Z,21.10
2022-12-16T08:31:49.069Z,21.37
2022-12-16T08:34:52.883Z,26.97
2022-12-16T08:37:57.011Z,23.33
2022-12-16T08:41:02.589Z,21.47
2022-12-16T08:44:06.584Z,31.33
2022-12-16T08:47:10.717Z,24.33
2022-12-16T08:50:15.175Z,24.23
2022-12-16T08:53:18.819Z,25.30
2022-12-16T08:56:23.255Z,27.70
2022-12-16T08:59:27.559Z,24.10
2022-12-16T09:02:32.049Z,27.30
2022-12-16T09:05:36.405Z,24.80
2022-12-16T09:08:40.555Z,29.87
2022-12-16T09:11:44.359Z,30.80
2022-12-16T09:14:48.275Z,27.90
2022-12-16T09:17:52.219Z,25.53
2022-12-16T09:20:56.844Z,27.87
2022-12-16T09:24:00.955Z,33.77
2022-12-16T09:27:04.824Z,21.77
2022-12-16T09:30:08.938Z,25.70
2022-12-16T09:33:13.007Z,23.03
2022-12-16T09:36:17.103Z,24.97
2022-12-16T09:39:23.971Z,25.77
2022-12-16T09:42:47.547Z,26.13
2022-12-16T09:46:09.660Z,30.17
2022-12-16T09:49:25.377Z,25.13
2022-12-16T09:52:34.958Z,21.87
2022-12-16T09:55:57.325Z,27.97
2022-12-16T09:59:16.422Z,26.50
2022-12-16T10:02:21.267Z,21.10
2022-12-16T10:05:39.332Z,34.33
2022-12-16T10:09:00.098Z,27.37
2022-12-16T10:12:41.858Z,19.00
2022-12-16T10:16:06.385Z,22.53
2022-12-16T10:19:24.611Z,31.83
2022-12-16T10:22:43.157Z,22.73
2022-12-16T10:26:08.541Z,26.47
2022-12-16T10:29:24.276Z,31.53
2022-12-16T10:32:51.857Z,25.37
2022-12-16T10:36:04.567Z,26.07
2022-12-16T10:39:16.451Z,24.97
2022-12-16T10:42:22.128Z,22.13
2022-12-16T10:45:39.533Z,24.70
2022-12-16T10:48:56.270Z,22.20
2022-12-16T10:52:04.045Z,23.50
2022-12-16T10:55:30.584Z,20.90
2022-12-16T10:59:12.360Z,24.73
2022-12-16T11:02:36.661Z,28.53
2022-12-16T11:05:44.289Z,21.53
2022-12-16T11:08:55.567Z,26.43
2022-12-16T11:12:00.013Z,27.57
2022-12-16T11:18:43.255Z,22.30
2022-12-16T11:21:47.008Z,31.93
2022-12-16T11:24:51.345Z,26.27
2022-12-16T11:27:56.027Z,27.90
2022-12-16T11:31:02.790Z,23.57
2022-12-16T11:34:08.415Z,20.37
2022-12-16T11:37:16.848Z,25.40
2022-12-16T11:40:32.327Z,26.00
2022-12-16T11:43:38.027Z,24.93
2022-12-16T11:46:47.697Z,30.30
2022-12-16T11:49:54.648Z,24.47
2022-12-16T11:53:00.975Z,21.17
2022-12-16T11:56:15.431Z,26.47
2022-12-16T11:59:27.940Z,22.00
2022-12-16T12:02:39.919Z,22.40
2022-12-16T12:05:54.978Z,24.23
2022-12-16T12:09:06.194Z,20.30
2022-12-16T12:12:32.031Z,21.90
2022-12-16T12:15:50.159Z,21.00
2022-12-16T12:19:08.330Z,20.60
2022-12-16T12:22:37.120Z,21.80
2022-12-16T12:25:51.911Z,29.97
2022-12-16T12:28:55.827Z,26.30
2022-12-16T12:32:10.348Z,20.80
2022-12-16T12:35:20.773Z,20.20
2022-12-16T12:38:37.339Z,17.00
2022-12-16T12:41:47.671Z,25.07
2022-12-16T12:45:13.643Z,17.97
2022-12-16T12:48:29.200Z,22.70
2022-12-16T12:51:55.672Z,20.60
2022-12-16T12:55:11.608Z,21.47
2022-12-16T12:58:18.533Z,21.57
2022-12-16T13:01:25.844Z,23.83
2022-12-16T13:04:35.022Z,20.60
2022-12-16T13:07:39.378Z,20.03
2022-12-16T13:10:43.436Z,21.00
2022-12-16T13:13:52.293Z,17.67
2022-12-16T13:17:02.943Z,19.67
2022-12-16T13:20:16.319Z,18.40
2022-12-16T13:23:47.535Z,16.97
2022-12-16T13:26:53.587Z,17.40
2022-12-16T13:29:58.769Z,20.20
2022-12-16T13:33:18.175Z,24.70
2022-12-16T13:36:22.752Z,24.60
2022-12-16T13:39:48.749Z,22.67
2022-12-16T13:42:58.952Z,19.03
2022-12-16T13:46:25.992Z,19.00
2022-12-16T13:49:56.267Z,19.43
2022-12-16T13:53:03.240Z,22.20
2022-12-16T13:56:17.705Z,19.67
2022-12-16T13:59:44.308Z,17.50
2022-12-16T14:02:57.191Z,22.67
2022-12-16T14:06:02.358Z,22.30
2022-12-16T14:09:07.884Z,23.50
2022-12-16T14:12:21.344Z,22.90
2022-12-16T14:15:42.596Z,19.40
2022-12-16T14:18:58.912Z,17.43
2022-12-16T14:22:16.785Z,20.17
2022-12-16T14:25:38.161Z,25.63
2022-12-16T14:28:48.175Z,40.20
2022-12-16T14:31:59.338Z,22.70
2022-12-16T14:35:03.335Z,26.30
2022-12-16T14:38:27.447Z,23.67
2022-12-16T14:41:41.838Z,29.60
2022-12-16T14:45:02.673Z,25.77
2022-12-16T14:48:06.897Z,22.63
2022-12-16T14:51:10.807Z,22.27
2022-12-16T14:54:47.347Z,20.93
2022-12-16T14:57:52.184Z,20.43
2022-12-16T15:00:58.285Z,20.67
2022-12-16T15:04:08.120Z,24.97
2022-12-16T15:07:16.529Z,26.03
2022-12-16T15:10:22.260Z,25.17
2022-12-16T15:13:34.807Z,28.23
2022-12-16T15:16:47.522Z,24.40
2022-12-16T15:20:03.876Z,20.13
2022-12-16T15:23:08.475Z,30.60
2022-12-16T15:26:15.964Z,25.20
2022-12-16T15:29:19.623Z,24.33
2022-12-16T15:32:44.847Z,24.60
2022-12-16T15:35:51.634Z,22.50
2022-12-16T15:38:55.480Z,27.53
2022-12-16T15:42:05.515Z,24.57
2022-12-16T15:45:10.387Z,23.80
2022-12-16T15:48:15.155Z,24.80
2022-12-16T15:51:19.218Z,25.97
2022-12-16T15:54:23.484Z,27.20
2022-12-16T15:57:52.269Z,22.37
2022-12-16T16:00:56.038Z,22.73
2022-12-16T16:04:08.293Z,25.03
2022-12-16T16:07:12.780Z,24.17
2022-12-16T16:10:37.900Z,19.97
2022-12-16T16:13:41.805Z,25.50
2022-12-16T16:16:45.900Z,26.47
2022-12-16T16:19:49.680Z,20.70
2022-12-16T16:23:01.311Z,23.60
2022-12-16T16:26:07.132Z,22.93
2022-12-16T16:29:10.576Z,27.80
2022-12-16T16:32:14.782Z,25.37
2022-12-16T16:35:18.333Z,18.73
2022-12-16T16:38:22.212Z,20.10
2022-12-16T16:41:33.376Z,28.57
2022-12-16T16:44:37.299Z,24.97
2022-12-16T16:47:41.571Z,26.03
2022-12-16T16:50:45.275Z,22.50
2022-12-16T16:53:51.957Z,25.40
2022-12-16T16:56:56.850Z,27.40
2022-12-16T17:00:03.064Z,29.90
2022-12-16T17:03:07.312Z,26.47
2022-12-16T17:06:11.793Z,25.20
2022-12-16T17:09:16.225Z,29.20
2022-12-16T17:12:21.836Z,36.93
2022-12-16T17:15:38.758Z,25.20
2022-12-16T17:18:46.574Z,26.27
2022-12-16T17:21:52.341Z,23.90
2022-12-16T17:25:00.806Z,28.53
2022-12-16T17:28:07.945Z,24.50
2022-12-16T17:31:13.169Z,25.50
2022-12-16T17:34:17.234Z,29.07
2022-12-16T17:37:21.086Z,27.17
2022-12-16T17:40:25.475Z,28.50
2022-12-16T17:43:33.168Z,36.80
2022-12-16T17:46:40.599Z,32.00
2022-12-16T17:49:44.971Z,28.60
2022-12-16T17:52:49.641Z,32.10
2022-12-16T17:55:53.675Z,30.60
2022-12-16T17:58:58.213Z,25.70
2022-12-16T18:02:19.845Z,33.60
2022-12-16T18:05:24.141Z,32.53
2022-12-16T18:08:27.999Z,32.43
2022-12-16T18:11:38.539Z,27.93
2022-12-16T18:14:42.996Z,25.77
2022-12-16T18:17:46.696Z,32.13
2022-12-16T18:20:53.067Z,27.40
2022-12-16T18:23:57.751Z,36.80
2022-12-16T18:27:08.524Z,34.43
2022-12-16T18:30:13.438Z,29.53
2022-12-16T18:33:17.732Z,35.10
2022-12-16T18:36:23.618Z,42.30
2022-12-16T18:39:27.607Z,38.53
2022-12-16T18:42:35.077Z,33.80
2022-12-16T18:45:39.734Z,32.13
2022-12-16T18:48:52.066Z,43.80
2022-12-16T18:51:55.816Z,35.93
2022-12-16T18:55:02.475Z,31.87
2022-12-16T18:58:21.003Z,30.87
2022-12-16T19:01:31.892Z,35.67
2022-12-16T19:04:35.870Z,34.20
2022-12-16T19:07:39.845Z,29.27
2022-12-16T19:10:43.837Z,33.23
2022-12-16T19:13:48.103Z,37.00
2022-12-16T19:16:55.042Z,28.47
2022-12-16T19:20:00.241Z,30.20
2022-12-16T19:23:06.158Z,32.30
2022-12-16T19:26:19.667Z,33.70
2022-12-16T19:29:23.661Z,39.40
2022-12-16T19:32:27.894Z,28.90
2022-12-16T19:35:32.259Z,30.17
2022-12-16T19:38:38.540Z,35.60
2022-12-16T19:41:42.677Z,39.37
2022-12-16T19:44:49.014Z,54.33
2022-12-16T19:47:53.068Z,38.63
2022-12-16T19:50:57.201Z,48.57
2022-12-16T19:54:01.444Z,46.13
2022-12-16T19:57:05.550Z,43.83
2022-12-16T20:00:09.587Z,39.53
2022-12-16T20:03:13.831Z,46.60
2022-12-16T20:06:22.843Z,52.43
2022-12-16T20:09:29.877Z,53.97
2022-12-16T20:12:33.580Z,45.07
2022-12-16T20:15:37.642Z,43.77
2022-12-16T20:18:49.074Z,49.57
2022-12-16T20:21:56.361Z,51.03
2022-12-16T20:25:02.437Z,54.37
2022-12-16T20:28:06.870Z,50.33
2022-12-16T20:31:11.718Z,43.30
2022-12-16T20:34:18.004Z,40.67
2022-12-16T20:37:21.857Z,45.17
2022-12-16T20:40:26.404Z,47.47
2022-12-16T20:43:32.779Z,48.73
2022-12-16T20:46:39.485Z,43.00
2022-12-16T20:49:43.248Z,49.80
2022-12-16T20:52:47.000Z,49.67
2022-12-16T20:55:50.683Z,50.57
2022-12-16T21:02:24.491Z,43.47
2022-12-16T21:05:31.690Z,50.50
2022-12-16T21:08:35.554Z,47.17
2022-12-16T21:11:39.650Z,53.80
2022-12-16T21:14:43.484Z,52.30
2022-12-16T21:17:48.351Z,43.40
2022-12-16T21:20:52.020Z,63.37
2022-12-16T21:23:56.124Z,54.13
2022-12-16T21:27:00.761Z,50.53
2022-12-16T21:30:04.874Z,47.93
2022-12-16T21:33:11.658Z,48.43
2022-12-16T21:36:15.679Z,54.83
2022-12-16T21:39:20.924Z,57.97
2022-12-16T21:42:26.883Z,59.33
2022-12-16T21:45:36.027Z,56.80
2022-12-16T21:48:39.779Z,67.83
2022-12-16T21:51:44.593Z,50.23
2022-12-16T21:54:48.671Z,73.30
2022-12-16T21:57:53.300Z,77.00
2022-12-16T22:01:00.840Z,55.00
2022-12-16T22:04:04.992Z,74.73
2022-12-16T22:07:09.804Z,62.17
2022-12-16T22:10:13.586Z,55.10
2022-12-16T22:13:18.503Z,54.63
2022-12-16T22:16:24.433Z,55.63
2022-12-16T22:19:28.728Z,53.97
2022-12-16T22:22:37.735Z,51.23
2022-12-16T22:25:41.689Z,63.60
2022-12-16T22:28:45.930Z,59.47
2022-12-16T22:31:49.937Z,49.63
2022-12-16T22:34:56.197Z,55.87
2022-12-16T22:38:00.349Z,50.30
2022-12-16T22:41:13.790Z,54.03
2022-12-16T22:44:21.295Z,53.37
2022-12-16T22:47:25.598Z,50.17
2022-12-16T22:50:29.460Z,48.13
2022-12-16T22:53:53.525Z,45.10
2022-12-16T22:56:57.176Z,51.63
2022-12-16T23:00:02.403Z,52.50
2022-12-16T23:03:06.135Z,60.07
2022-12-16T23:06:10.072Z,41.43
2022-12-16T23:09:14.697Z,56.63
2022-12-16T23:12:21.028Z,49.40
2022-12-16T23:15:25.717Z,61.40
2022-12-16T23:18:32.051Z,42.57
2022-12-16T23:21:37.338Z,47.07
2022-12-16T23:24:40.773Z,48.17
2022-12-16T23:27:47.237Z,57.00
2022-12-16T23:30:51.214Z,40.90
2022-12-16T23:33:56.837Z,34.73
2022-12-16T23:37:03.314Z,56.50
2022-12-16T23:40:07.403Z,34.30
2022-12-16T23:43:15.873Z,29.00
2022-12-16T23:46:21.077Z,35.37
2022-12-16T23:49:24.780Z,32.10
2022-12-16T23:52:28.957Z,36.93
2022-12-16T23:55:33.120Z,40.87
2022-12-16T23:58:39.518Z,29.23
